»·PEaware :: N447AB KVUO-KAWO

N447AB :: KVUO-KAWO

FLIGHT INFORMATION

Flight Status: Arrived
Operator: Privately registered:
United States
More flights under this callsign
Pilot: Gabor H. (24209)
Aircraft: Unknown
(DA50)
More flights by this aircraft type
Origin: KVUO Pearson
United States
Destination: KAWO Arlington Mun
United States
More flights between these airports :: More routes between these airports
Route: BTG V495 SEA V23 PAE
File this flight plan on PilotEdge
Remarks:
Altitude:
(Current/Filed)
10,000ft
Speed:
(Current/Filed)
170kts
Departed: 30-Nov-23 08:12 AM
Arrived: 30-Nov-23 09:15 AM
Distance/Time
Traveled:
154nm/1:03
Distance/Time
To Go:
Arrived

Flight Plot

Page will automatically refresh every two minutes.

Flight plan parsing failed; only flown route is shown


Map Options




Map Legend


Flown Route
Filed Route
Departure Airport
Arrival Airport
Navaid (VOR, NDB)
Fix

Horizontal Profiles

Position Reports

Time Latitude Longitude Heading Altitude Ground
Speed
30-Nov-23 07:57 45.622608 -122.654357 184 30ft 0kts
30-Nov-23 07:58 45.622608 -122.654357 184 30ft 0kts
30-Nov-23 07:59 45.622608 -122.654357 184 30ft 0kts
30-Nov-23 08:00 45.622608 -122.654357 184 30ft 0kts
30-Nov-23 08:01 45.622608 -122.654357 184 30ft 0kts
30-Nov-23 08:02 45.622146 -122.654580 198 27ft 2kts
30-Nov-23 08:03 45.621354 -122.655369 273 27ft 7kts
30-Nov-23 08:04 45.620976 -122.657363 272 27ft 5kts
30-Nov-23 08:05 45.621199 -122.658345 239 28ft 0kts
30-Nov-23 08:06 45.621199 -122.658345 239 28ft 0kts
30-Nov-23 08:07 45.621199 -122.658345 239 28ft 0kts
30-Nov-23 08:08 45.621199 -122.658345 239 28ft 0kts
30-Nov-23 08:09 45.621187 -122.658368 232 28ft 0kts
30-Nov-23 08:10 45.621484 -122.662368 268 33ft 2kts
30-Nov-23 08:11 45.620789 -122.659886 96 29ft 59kts
30-Nov-23 08:12 45.618057 -122.627628 63 985ft 81kts
30-Nov-23 08:13 45.638436 -122.618214 11 2105ft 81kts
30-Nov-23 08:14 45.661031 -122.612675 9 3118ft 84kts
30-Nov-23 08:15 45.684101 -122.607021 8 4127ft 85kts
30-Nov-23 08:16 45.707505 -122.601282 7 5132ft 86kts
30-Nov-23 08:17 45.730294 -122.595424 6 6171ft 83kts
30-Nov-23 08:18 45.754724 -122.590301 2 7148ft 89kts
30-Nov-23 08:19 45.779235 -122.586244 1 8191ft 84kts
30-Nov-23 08:20 45.803649 -122.582222 2 9229ft 85kts
30-Nov-23 08:21 45.829243 -122.577940 0 10046ft 112kts
30-Nov-23 08:22 45.869435 -122.571666 1 10041ft 162kts
30-Nov-23 08:23 45.915549 -122.564090 2 10053ft 171kts
30-Nov-23 08:24 45.963107 -122.556448 1 10041ft 174kts
30-Nov-23 08:25 46.011901 -122.548349 2 10025ft 178kts
30-Nov-23 08:26 46.061266 -122.540451 3 10013ft 177kts
30-Nov-23 08:27 46.109331 -122.532536 1 10042ft 173kts
30-Nov-23 08:28 46.157339 -122.524843 2 10030ft 175kts
30-Nov-23 08:29 46.205628 -122.516586 3 10010ft 176kts
30-Nov-23 08:30 46.254049 -122.508671 2 10002ft 176kts
30-Nov-23 08:31 46.302811 -122.500593 2 9984ft 176kts
30-Nov-23 08:32 46.351299 -122.492573 2 9991ft 174kts
30-Nov-23 08:33 46.399291 -122.484871 2 10044ft 175kts
30-Nov-23 08:34 46.447806 -122.476593 2 10012ft 176kts
30-Nov-23 08:35 46.496409 -122.468485 1 9993ft 174kts
30-Nov-23 08:36 46.544491 -122.460617 2 9988ft 176kts
30-Nov-23 08:37 46.592290 -122.452565 2 9990ft 169kts
30-Nov-23 08:38 46.638489 -122.444865 2 10000ft 167kts
30-Nov-23 08:39 46.684791 -122.437116 2 10001ft 167kts
30-Nov-23 08:40 46.731008 -122.429361 2 10000ft 168kts
30-Nov-23 08:41 46.777406 -122.421580 2 9998ft 168kts
30-Nov-23 08:42 46.823753 -122.413772 2 9995ft 168kts
30-Nov-23 08:43 46.870254 -122.405931 2 9993ft 168kts
30-Nov-23 08:44 46.916599 -122.398097 2 9992ft 167kts
30-Nov-23 08:45 46.962873 -122.390261 2 9992ft 167kts
30-Nov-23 08:46 47.009140 -122.382415 2 9992ft 167kts
30-Nov-23 08:47 47.055926 -122.374356 1 9994ft 174kts
30-Nov-23 08:48 47.104181 -122.366445 1 9999ft 175kts
30-Nov-23 08:49 47.152306 -122.358074 2 9998ft 175kts
30-Nov-23 08:50 47.200710 -122.349768 4 9985ft 174kts
30-Nov-23 08:51 47.248744 -122.341428 5 9989ft 174kts
30-Nov-23 08:52 47.296488 -122.333357 4 10006ft 172kts
30-Nov-23 08:53 47.344672 -122.325183 2 9987ft 174kts
30-Nov-23 08:54 47.392941 -122.316814 2 9993ft 174kts
30-Nov-23 08:55 47.440798 -122.309207 0 9989ft 173kts
30-Nov-23 08:56 47.489256 -122.305994 358 10009ft 176kts
30-Nov-23 08:57 47.536858 -122.302901 359 10015ft 167kts
30-Nov-23 08:58 47.586534 -122.299709 0 9273ft 182kts
30-Nov-23 08:59 47.634976 -122.296476 0 8507ft 170kts
30-Nov-23 09:00 47.681250 -122.293494 0 7774ft 165kts
30-Nov-23 09:01 47.726769 -122.290551 1 7053ft 162kts
30-Nov-23 09:02 47.771530 -122.287599 1 6343ft 160kts
30-Nov-23 09:03 47.815766 -122.284681 2 5640ft 159kts
30-Nov-23 09:04 47.859608 -122.281784 2 4941ft 157kts
30-Nov-23 09:05 47.903191 -122.278906 3 4194ft 157kts
30-Nov-23 09:06 47.934612 -122.243758 56 3542ft 150kts
30-Nov-23 09:07 47.958251 -122.190952 57 2544ft 152kts
30-Nov-23 09:08 47.986995 -122.153507 7 2010ft 131kts
30-Nov-23 09:09 48.023759 -122.153140 0 2040ft 133kts
30-Nov-23 09:10 48.062558 -122.153928 359 1911ft 147kts
30-Nov-23 09:11 48.103085 -122.154960 358 1151ft 128kts
30-Nov-23 09:12 48.131807 -122.155628 358 617ft 86kts
30-Nov-23 09:13 48.153448 -122.156187 357 186ft 73kts
30-Nov-23 09:14 48.164347 -122.156197 69 139ft 9kts
30-Nov-23 09:15 48.161521 -122.154299 177 136ft 10kts
30-Nov-23 09:16 48.161233 -122.153798 87 137ft 0kts
30-Nov-23 09:17 48.161233 -122.153798 87 137ft 0kts
30-Nov-23 09:18 48.161233 -122.153798 87 137ft 0kts

Navigation Log

Ident Type
Flight plan parsing failed, navigation log unavailable